Time;durP1;ratioP1;P1;durP2;ratioP2;P2;SDS_P1;SDS_P2;PMS_P1;PMS_P2;Temp;Humidity;BMP_temperature;BMP_pressure;BME280_temperature;BME280_humidity;BME280_pressure;Samples;Min_cycle;Max_cycle;Signal;HPM_P1;HPM_P2
2022/10/14 00:01:09;;;;;;;64.22;13.65;;;;;;;9.62;100.00;101633.97;6221069;23;20020;-75
2022/10/14 00:03:38;;;;;;;123.30;12.43;;;;;;;9.56;100.00;101630.31;6220378;23;20013;-76
2022/10/14 00:06:14;;;;;;;188.88;13.68;;;;;;;9.54;100.00;101629.97;6220831;23;20101;-75
2022/10/14 00:08:42;;;;;;;109.50;13.45;;;;;;;9.51;100.00;101624.72;6221063;23;20028;-76
2022/10/14 00:11:16;;;;;;;80.30;13.30;;;;;;;9.49;100.00;101627.78;6195643;23;20439;-76
2022/10/14 00:13:43;;;;;;;42.28;11.77;;;;;;;9.49;100.00;101625.13;6195022;23;20048;-75
2022/10/14 00:16:18;;;;;;;56.70;12.55;;;;;;;9.53;100.00;101633.78;6221207;23;20025;-76
2022/10/14 00:18:46;;;;;;;108.72;13.43;;;;;;;9.54;100.00;101621.25;6194089;23;20055;-76
2022/10/14 00:21:13;;;;;;;108.63;12.25;;;;;;;9.49;100.00;101629.69;6221120;23;20155;-76
2022/10/14 00:23:39;;;;;;;138.48;12.15;;;;;;;9.44;100.00;101622.94;6220820;23;20047;-75
2022/10/14 00:26:06;;;;;;;53.03;11.02;;;;;;;9.39;100.00;101628.75;6221083;23;20101;-75
2022/10/14 00:28:33;;;;;;;79.85;10.98;;;;;;;9.36;100.00;101624.25;6193781;23;20112;-75
2022/10/14 00:31:01;;;;;;;138.65;11.95;;;;;;;9.34;100.00;101629.97;6220730;23;20448;-75
2022/10/14 00:33:28;;;;;;;81.18;10.98;;;;;;;9.31;100.00;101622.06;6217982;23;20092;-76
2022/10/14 00:36:03;;;;;;;79.40;11.00;;;;;;;9.29;100.00;101619.81;6218785;23;20045;-75
2022/10/14 00:38:33;;;;;;;123.82;12.13;;;;;;;9.27;100.00;101614.16;6192197;23;20031;-75
2022/10/14 00:41:00;;;;;;;96.15;11.88;;;;;;;9.24;100.00;101614.97;6219816;23;20040;-76
2022/10/14 00:43:27;;;;;;;130.90;11.98;;;;;;;9.23;100.00;101610.81;6220272;23;20084;-75
2022/10/14 00:45:55;;;;;;;98.50;11.63;;;;;;;9.22;100.00;101604.00;6220949;23;20033;-75
2022/10/14 00:48:25;;;;;;;51.92;10.85;;;;;;;9.22;100.00;101605.91;6220335;23;20024;-76
2022/10/14 00:50:55;;;;;;;60.08;10.95;;;;;;;9.24;100.00;101603.59;6194329;23;20021;-75
2022/10/14 00:53:22;;;;;;;127.05;11.45;;;;;;;9.21;100.00;101597.19;6220832;23;20470;-75
2022/10/14 00:55:49;;;;;;;31.83;10.77;;;;;;;9.19;100.00;101598.78;6193905;23;20530;-75
2022/10/14 00:58:16;;;;;;;57.28;10.88;;;;;;;9.14;100.00;101593.94;6220820;23;20049;-75
2022/10/14 01:00:42;;;;;;;33.08;11.05;;;;;;;9.14;100.00;101597.34;6194134;23;20045;-75
2022/10/14 01:03:17;;;;;;;116.72;11.07;;;;;;;9.12;100.00;101589.03;6220362;23;20017;-75
2022/10/14 01:05:51;;;;;;;26.88;10.73;;;;;;;9.12;100.00;101585.63;6220947;23;20020;-75
2022/10/14 01:08:29;;;;;;;59.20;11.30;;;;;;;9.12;100.00;101561.72;6220162;23;20451;-75
2022/10/14 01:11:09;;;;;;;56.53;10.98;;;;;;;9.12;100.00;101572.34;6221005;23;20017;-75
2022/10/14 01:13:42;;;;;;;70.43;11.60;;;;;;;9.06;100.00;101572.06;6220843;23;20020;-75
2022/10/14 01:16:23;;;;;;;22.02;12.23;;;;;;;9.06;100.00;101558.78;6220504;23;20041;-75
2022/10/14 01:19:08;;;;;;;79.00;11.97;;;;;;;8.98;100.00;101555.50;6194498;23;20021;-75
2022/10/14 01:22:11;;;;;;;52.00;10.45;;;;;;;8.99;100.00;101545.63;6220427;23;20551;-75
2022/10/14 01:25:18;;;;;;;88.20;10.40;;;;;;;9.00;100.00;101533.84;6193600;23;20017;-75
2022/10/14 01:28:04;;;;;;;99.43;11.52;;;;;;;8.94;100.00;101520.31;6220715;23;20013;-75
2022/10/14 01:30:35;;;;;;;115.22;11.27;;;;;;;8.91;100.00;101515.81;6219847;23;20044;-75
2022/10/14 01:33:08;;;;;;;132.77;11.35;;;;;;;8.92;100.00;101508.59;6221064;23;20024;-76
2022/10/14 01:36:01;;;;;;;92.00;12.07;;;;;;;8.93;100.00;101521.47;6193670;23;20538;-77
2022/10/14 01:38:34;;;;;;;94.45;11.48;;;;;;;8.95;100.00;101529.78;6193701;23;20072;-77
2022/10/14 01:41:27;;;;;;;69.68;12.23;;;;;;;8.96;100.00;101533.91;6194187;23;20025;-77
2022/10/14 01:43:56;;;;;;;58.08;12.07;;;;;;;8.98;100.00;101517.59;6193978;23;20523;-77
2022/10/14 01:46:25;;;;;;;36.33;11.70;;;;;;;8.99;100.00;101525.16;6220011;23;20049;-77
2022/10/14 01:48:58;;;;;;;61.22;12.30;;;;;;;9.02;100.00;101524.31;6220764;23;20056;-77
2022/10/14 01:51:42;;;;;;;62.13;12.57;;;;;;;9.06;100.00;101534.13;6193815;23;20048;-77
2022/10/14 01:54:14;;;;;;;84.55;12.85;;;;;;;9.07;100.00;101548.91;6194088;23;20035;-77
2022/10/14 01:56:44;;;;;;;25.90;12.20;;;;;;;9.09;100.00;101546.59;6220840;23;20021;-76
2022/10/14 01:59:15;;;;;;;34.58;12.45;;;;;;;9.12;100.00;101549.19;6193362;23;20064;-75
2022/10/14 02:01:41;;;;;;;22.40;13.00;;;;;;;9.14;100.00;101548.78;6194061;23;20025;-75
2022/10/14 02:04:34;;;;;;;46.60;13.13;;;;;;;9.16;100.00;101554.44;6220755;23;20514;-75
2022/10/14 02:07:10;;;;;;;42.50;13.70;;;;;;;9.16;100.00;101544.56;6213759;23;20021;-75
2022/10/14 02:09:47;;;;;;;32.33;12.98;;;;;;;9.16;100.00;101541.91;6220457;23;20049;-76
2022/10/14 02:12:38;;;;;;;63.78;13.63;;;;;;;9.17;100.00;101535.44;6220852;23;20021;-76
2022/10/14 02:15:52;;;;;;;43.30;13.07;;;;;;;9.19;100.00;101532.38;6193239;23;20021;-75
2022/10/14 02:18:35;;;;;;;50.35;13.43;;;;;;;9.22;100.00;101528.84;6074192;23;20460;-75
2022/10/14 02:21:12;;;;;;;50.78;14.00;;;;;;;9.24;100.00;101535.25;6098241;23;20023;-75
2022/10/14 02:24:07;;;;;;;37.95;13.77;;;;;;;9.27;100.00;101525.72;6098955;23;20472;-75
2022/10/14 02:26:36;;;;;;;74.28;14.40;;;;;;;9.30;100.00;101523.00;6054330;23;20014;-75
2022/10/14 02:29:04;;;;;;;48.05;14.70;;;;;;;9.30;100.00;101525.66;6097986;23;20029;-76
2022/10/14 02:31:38;;;;;;;49.13;15.05;;;;;;;9.33;100.00;101530.16;6073723;23;20015;-75
2022/10/14 02:34:10;;;;;;;37.47;14.10;;;;;;;9.35;100.00;101529.75;6098745;23;20090;-76
2022/10/14 02:36:38;;;;;;;63.25;14.93;;;;;;;9.38;100.00;101520.94;6074334;23;20023;-76
2022/10/14 02:39:08;;;;;;;68.45;15.73;;;;;;;9.39;100.00;101527.75;6074284;23;20102;-76
2022/10/14 02:41:36;;;;;;;36.10;15.32;;;;;;;9.40;100.00;101523.19;6098293;23;20023;-76
2022/10/14 02:44:06;;;;;;;60.65;15.98;;;;;;;9.41;100.00;101511.41;6074081;23;20042;-75
2022/10/14 02:46:34;;;;;;;118.10;16.92;;;;;;;9.42;100.00;101513.66;6098224;23;20019;-76
2022/10/14 02:49:00;;;;;;;46.60;16.60;;;;;;;9.44;100.00;101503.34;6074389;23;20489;-75
2022/10/14 02:51:27;;;;;;;56.15;17.05;;;;;;;9.47;100.00;101499.88;6113216;23;20074;-76
2022/10/14 02:53:55;;;;;;;51.83;16.80;;;;;;;9.49;100.00;101499.47;6220405;23;20024;-76
2022/10/14 02:56:23;;;;;;;100.95;17.17;;;;;;;9.51;100.00;101497.16;6192950;23;20025;-76
2022/10/14 02:58:50;;;;;;;99.88;16.88;;;;;;;9.52;100.00;101493.31;6220001;23;20506;-76
2022/10/14 03:01:16;;;;;;;70.55;17.17;;;;;;;9.52;100.00;101483.44;6220135;23;20076;-76
2022/10/14 03:03:43;;;;;;;92.43;17.83;;;;;;;9.54;100.00;101483.78;6193605;23;20028;-76
2022/10/14 03:06:09;;;;;;;61.38;17.20;;;;;;;9.55;100.00;101490.59;6193447;23;20573;-75
2022/10/14 03:08:36;;;;;;;81.72;18.38;;;;;;;9.57;100.00;101482.94;6220211;23;20312;-75
2022/10/14 03:11:04;;;;;;;74.85;17.92;;;;;;;9.58;100.00;101481.78;6193524;23;20029;-76
2022/10/14 03:13:31;;;;;;;53.53;18.30;;;;;;;9.60;100.00;101479.44;6219328;23;20581;-76
2022/10/14 03:15:58;;;;;;;80.93;18.92;;;;;;;9.62;100.00;101473.72;6220246;23;20359;-76
2022/10/14 03:18:25;;;;;;;61.92;18.42;;;;;;;9.64;100.00;101471.38;6193102;23;20079;-76
2022/10/14 03:20:57;;;;;;;58.75;19.98;;;;;;;9.65;100.00;101473.63;6193178;23;20056;-76
2022/10/14 03:23:31;;;;;;;64.88;18.65;;;;;;;9.68;100.00;101467.50;6193064;23;20033;-76
2022/10/14 03:25:57;;;;;;;42.42;19.38;;;;;;;9.69;100.00;101468.97;6193735;23;20021;-75
2022/10/14 03:28:29;;;;;;;57.90;20.08;;;;;;;9.73;100.00;101474.22;6192249;23;20021;-76
2022/10/14 03:31:07;;;;;;;68.97;19.02;;;;;;;9.75;100.00;101468.50;6192955;23;20450;-75
2022/10/14 03:34:11;;;;;;;75.43;19.17;;;;;;;9.78;100.00;101467.66;6203039;23;20029;-76
2022/10/14 03:36:39;;;;;;;86.43;19.98;;;;;;;9.79;100.00;101466.50;6192667;23;20025;-76
2022/10/14 03:39:08;;;;;;;50.85;18.80;;;;;;;9.81;100.00;101464.19;6193205;23;20017;-76
2022/10/14 03:41:43;;;;;;;85.50;20.80;;;;;;;9.83;100.00;101467.91;6187384;23;20022;-75
2022/10/14 03:44:14;;;;;;;76.70;21.65;;;;;;;9.84;100.00;101464.09;6188323;23;20022;-76
2022/10/14 03:46:48;;;;;;;61.15;19.90;;;;;;;9.87;100.00;101451.88;6188381;23;20096;-76
2022/10/14 03:49:15;;;;;;;60.33;21.58;;;;;;;9.88;100.00;101443.47;6188141;23;20080;-76
2022/10/14 03:51:42;;;;;;;64.28;21.80;;;;;;;9.91;100.00;101441.91;6188217;23;20440;-76
2022/10/14 03:54:18;;;;;;;61.13;20.83;;;;;;;9.92;100.00;101444.16;6188041;23;20460;-75
2022/10/14 03:56:44;;;;;;;83.63;21.13;;;;;;;9.94;100.00;101443.72;6187468;23;20432;-75
2022/10/14 03:59:12;;;;;;;59.55;21.60;;;;;;;9.97;100.00;101442.91;6187780;23;20077;-75
2022/10/14 04:01:45;;;;;;;60.72;22.35;;;;;;;9.98;100.00;101434.50;6187769;23;20060;-76
2022/10/14 04:04:20;;;;;;;53.33;21.55;;;;;;;10.02;100.00;101429.06;6187742;23;20024;-75
2022/10/14 04:06:46;;;;;;;76.35;22.75;;;;;;;10.03;100.00;101426.00;6187834;23;20447;-76
2022/10/14 04:09:15;;;;;;;54.72;23.90;;;;;;;10.05;100.00;101417.59;6163472;23;20467;-75
2022/10/14 04:11:42;;;;;;;76.45;23.38;;;;;;;10.07;100.00;101420.59;6187504;23;20048;-75
2022/10/14 04:14:19;;;;;;;54.80;23.73;;;;;;;10.10;100.00;101416.34;6187704;23;20049;-76
2022/10/14 04:16:48;;;;;;;58.17;23.00;;;;;;;10.10;100.00;101411.75;6189478;23;20053;-75
2022/10/14 04:19:16;;;;;;;76.28;23.58;;;;;;;10.12;100.00;101412.09;6187722;23;20022;-75
2022/10/14 04:21:43;;;;;;;64.20;23.80;;;;;;;10.14;100.00;101415.09;6187684;23;20081;-75
2022/10/14 04:24:10;;;;;;;60.25;24.33;;;;;;;10.16;100.00;101417.31;6188902;23;20028;-75
2022/10/14 04:26:51;;;;;;;57.00;25.13;;;;;;;10.19;100.00;101419.16;6188179;23;20064;-74
2022/10/14 04:29:26;;;;;;;63.22;22.88;;;;;;;10.22;100.00;101421.00;6187287;23;20049;-75
2022/10/14 04:32:01;;;;;;;67.43;25.42;;;;;;;10.22;100.00;101413.78;6187855;23;20025;-74
2022/10/14 04:34:28;;;;;;;54.75;24.65;;;;;;;10.25;100.00;101415.59;6187109;23;20415;-76
2022/10/14 04:36:55;;;;;;;77.10;25.70;;;;;;;10.26;100.00;101408.34;6189048;23;20108;-76
2022/10/14 04:39:34;;;;;;;71.43;25.50;;;;;;;10.27;100.00;101410.59;6186348;23;20454;-75
2022/10/14 04:42:00;;;;;;;83.88;26.15;;;;;;;10.29;100.00;101407.50;6187381;23;20025;-75
2022/10/14 04:44:27;;;;;;;58.67;27.05;;;;;;;10.30;100.00;101401.78;6188527;23;20092;-75
2022/10/14 04:46:54;;;;;;;80.18;26.27;;;;;;;10.32;100.00;101398.69;6190876;23;20103;-75
2022/10/14 04:49:23;;;;;;;62.40;25.02;;;;;;;10.34;100.00;101399.75;6188461;23;20069;-75
2022/10/14 04:52:08;;;;;;;78.35;25.30;;;;;;;10.36;100.00;101394.03;6188844;23;20036;-75
2022/10/14 04:54:50;;;;;;;60.50;26.27;;;;;;;10.37;100.00;101398.19;6188672;23;20061;-75
2022/10/14 04:57:27;;;;;;;69.60;25.98;;;;;;;10.39;100.00;101392.44;6189138;23;20430;-75
2022/10/14 04:59:54;;;;;;;61.63;26.25;;;;;;;10.42;100.00;101394.22;6189031;23;20028;-75
2022/10/14 05:02:38;;;;;;;56.90;26.30;;;;;;;10.43;100.00;101390.41;6190972;23;20026;-75
2022/10/14 05:05:07;;;;;;;67.47;26.35;;;;;;;10.45;100.00;101377.41;6189104;23;20329;-75
2022/10/14 05:07:37;;;;;;;65.55;26.10;;;;;;;10.46;100.00;101374.34;6188355;23;20017;-75
2022/10/14 05:10:19;;;;;;;60.13;26.00;;;;;;;10.47;100.00;101370.50;6188885;23;20021;-75
2022/10/14 05:12:47;;;;;;;53.97;26.23;;;;;;;10.50;100.00;101363.59;6188949;23;20088;-75
2022/10/14 05:15:14;;;;;;;78.68;25.52;;;;;;;10.51;100.00;101360.50;6190819;23;20483;-75
2022/10/14 05:17:50;;;;;;;71.07;26.55;;;;;;;10.53;100.00;101357.41;6188678;23;20026;-75
2022/10/14 05:20:23;;;;;;;64.13;26.42;;;;;;;10.54;100.00;101351.69;6188715;23;20100;-75
2022/10/14 05:22:53;;;;;;;78.35;26.55;;;;;;;10.56;100.00;101353.91;6187855;23;20024;-75
2022/10/14 05:25:19;;;;;;;59.42;26.20;;;;;;;10.57;100.00;101350.09;6188045;23;20022;-75
2022/10/14 05:27:46;;;;;;;60.17;26.10;;;;;;;10.60;100.00;101343.91;6189028;23;20084;-75
2022/10/14 05:30:13;;;;;;;60.03;26.85;;;;;;;10.62;100.00;101344.22;6188973;23;20464;-76
2022/10/14 05:32:44;;;;;;;60.58;25.58;;;;;;;10.64;100.00;101345.31;6189014;23;20440;-76
2022/10/14 05:35:12;;;;;;;68.45;25.98;;;;;;;10.66;100.00;101334.97;6190736;23;20269;-75
2022/10/14 05:37:39;;;;;;;56.67;25.63;;;;;;;10.70;100.00;101340.19;6187702;23;20060;-75
2022/10/14 05:40:08;;;;;;;52.88;25.52;;;;;;;10.71;100.00;101327.63;6188662;23;20013;-75
2022/10/14 05:42:36;;;;;;;49.80;24.67;;;;;;;10.73;100.00;101330.63;6188360;23;20041;-75
2022/10/14 05:45:03;;;;;;;58.05;25.08;;;;;;;10.74;100.00;101326.78;6188808;23;20423;-75
2022/10/14 05:47:32;;;;;;;52.10;24.30;;;;;;;10.75;100.00;101321.03;6188332;23;20028;-75
2022/10/14 05:50:08;;;;;;;52.88;23.75;;;;;;;10.78;100.00;101324.75;6188701;23;20052;-75
2022/10/14 05:52:35;;;;;;;47.95;23.90;;;;;;;10.80;100.00;101309.06;6187867;23;20017;-75
2022/10/14 05:55:10;;;;;;;57.17;25.27;;;;;;;10.82;100.00;101314.72;6165980;23;20466;-75
2022/10/14 05:57:37;;;;;;;50.38;24.17;;;;;;;10.83;100.00;101310.88;6190199;23;20025;-75
2022/10/14 06:00:05;;;;;;;45.97;23.50;;;;;;;10.84;100.00;101307.06;6188796;23;20021;-75
2022/10/14 06:02:42;;;;;;;47.33;23.17;;;;;;;10.89;100.00;101309.94;6190485;23;20026;-76
2022/10/14 06:05:12;;;;;;;44.78;21.83;;;;;;;10.89;100.00;101303.84;6188658;23;20022;-76
2022/10/14 06:07:39;;;;;;;43.35;20.83;;;;;;;10.93;100.00;101305.25;6187660;23;20418;-75
2022/10/14 06:10:06;;;;;;;37.28;20.88;;;;;;;10.96;100.00;101301.72;6190375;23;20510;-75
2022/10/14 06:12:33;;;;;;;37.70;19.70;;;;;;;10.98;100.00;101298.63;6188354;23;20420;-75
2022/10/14 06:15:00;;;;;;;41.58;20.08;;;;;;;11.00;100.00;101302.38;6188433;23;20033;-75
2022/10/14 06:17:27;;;;;;;35.00;18.90;;;;;;;11.03;100.00;101295.44;6189775;23;20017;-75
2022/10/14 06:19:54;;;;;;;35.30;19.08;;;;;;;11.06;100.00;101288.50;6188407;23;20022;-75
2022/10/14 06:22:20;;;;;;;27.58;17.48;;;;;;;11.10;100.00;101294.47;6189221;23;20014;-75
2022/10/14 06:24:47;;;;;;;28.20;16.80;;;;;;;11.12;100.00;101290.19;6190427;23;20025;-75
2022/10/14 06:27:14;;;;;;;28.25;16.08;;;;;;;11.17;100.00;101284.34;6190498;23;20123;-75
2022/10/14 06:29:40;;;;;;;29.25;16.35;;;;;;;11.20;100.00;101288.03;6190062;23;20105;-75
2022/10/14 06:32:08;;;;;;;25.70;15.77;;;;;;;11.21;100.00;101278.88;6190385;23;20094;-77
2022/10/14 06:34:34;;;;;;;25.58;16.52;;;;;;;11.25;100.00;101284.81;6190576;23;20017;-77
2022/10/14 06:37:01;;;;;;;27.02;15.73;;;;;;;11.26;100.00;101281.72;6190372;23;20017;-77
2022/10/14 06:39:28;;;;;;;27.45;15.20;;;;;;;11.29;100.00;101283.53;6189497;23;20558;-76
2022/10/14 06:41:54;;;;;;;24.95;14.68;;;;;;;11.31;100.00;101277.78;6205279;23;20056;-78
2022/10/14 06:44:22;;;;;;;23.42;14.25;;;;;;;11.32;100.00;101277.34;6191775;23;20025;-76
2022/10/14 06:46:48;;;;;;;19.63;13.73;;;;;;;11.34;100.00;101274.25;6218398;23;20024;-77
2022/10/14 06:49:15;;;;;;;23.67;14.45;;;;;;;11.36;100.00;101271.91;6217946;23;20013;-78
2022/10/14 06:51:41;;;;;;;26.15;14.00;;;;;;;11.37;100.00;101270.72;6218920;23;20096;-76
2022/10/14 06:54:08;;;;;;;18.63;13.10;;;;;;;11.39;100.00;101270.31;6194199;23;20025;-77
2022/10/14 06:56:34;;;;;;;18.23;12.90;;;;;;;11.41;100.00;101273.28;6221044;23;20017;-76
2022/10/14 06:59:01;;;;;;;20.38;12.98;;;;;;;11.42;100.00;101267.50;6220806;23;20025;-76
2022/10/14 07:01:28;;;;;;;17.88;12.20;;;;;;;11.44;100.00;101267.84;6221021;23;20498;-78
2022/10/14 07:03:54;;;;;;;17.20;12.55;;;;;;;11.47;100.00;101268.88;6193841;23;20028;-74
2022/10/14 07:06:22;;;;;;;17.40;11.27;;;;;;;11.49;100.00;101277.94;6220419;23;20051;-75
2022/10/14 07:08:49;;;;;;;16.75;11.20;;;;;;;11.53;100.00;101264.50;6193829;23;20013;-75
2022/10/14 07:11:15;;;;;;;13.10;11.35;;;;;;;11.56;100.00;101267.03;6220820;23;20049;-76
2022/10/14 07:13:42;;;;;;;14.52;11.60;;;;;;;11.59;100.00;101271.50;6220407;23;20092;-76
2022/10/14 07:16:08;;;;;;;14.80;11.52;;;;;;;11.63;100.00;101260.69;6220676;23;20088;-76
2022/10/14 07:18:34;;;;;;;16.13;11.00;;;;;;;11.64;100.00;101265.59;6220071;23;20021;-76
2022/10/14 07:21:04;;;;;;;13.57;10.65;;;;;;;11.67;100.00;101251.41;6220607;23;20133;-75
2022/10/14 07:23:31;;;;;;;15.32;10.63;;;;;;;11.71;100.00;101256.63;6220620;23;20346;-74
2022/10/14 07:25:59;;;;;;;12.43;10.57;;;;;;;11.73;100.00;101261.53;6220705;23;20442;-75
2022/10/14 07:28:26;;;;;;;13.73;10.85;;;;;;;11.74;100.00;101263.75;6220778;23;20374;-75
2022/10/14 07:31:00;;;;;;;12.70;10.20;;;;;;;11.78;100.00;101266.31;6220527;23;20105;-77
2022/10/14 07:33:27;;;;;;;13.43;10.20;;;;;;;11.80;100.00;101261.31;6219907;23;20045;-75
2022/10/14 07:35:54;;;;;;;15.07;9.65;;;;;;;11.83;100.00;101263.09;6220511;23;20023;-76
2022/10/14 07:38:21;;;;;;;12.00;9.48;;;;;;;11.85;100.00;101258.06;6220468;23;20052;-75
2022/10/14 07:41:03;;;;;;;11.32;10.10;;;;;;;11.89;100.00;101264.03;6220217;23;20032;-74
2022/10/14 07:43:31;;;;;;;13.60;9.77;;;;;;;11.92;100.00;101255.16;6220584;23;20076;-76
2022/10/14 07:46:03;;;;;;;12.25;10.13;;;;;;;11.95;100.00;101254.28;6220702;23;20359;-75
2022/10/14 07:48:32;;;;;;;10.48;9.48;;;;;;;11.98;100.00;101250.75;6220104;23;20041;-75
2022/10/14 07:51:18;;;;;;;9.90;8.95;;;;;;;12.02;100.00;101256.69;6220616;23;20041;-74
2022/10/14 07:53:44;;;;;;;10.73;9.60;;;;;;;12.06;100.00;101257.31;6220447;23;20047;-75
2022/10/14 07:56:11;;;;;;;12.82;10.18;;;;;;;12.10;100.00;101263.25;6220811;23;20465;-74
2022/10/14 07:58:37;;;;;;;10.73;9.63;;;;;;;12.13;100.00;101265.06;6220493;23;20017;-76
2022/10/14 08:01:09;;;;;;;11.63;10.45;;;;;;;12.15;100.00;101260.03;6220390;23;20056;-76
2022/10/14 08:03:36;;;;;;;11.98;9.95;;;;;;;12.20;100.00;101261.38;6219654;23;20041;-76
2022/10/14 08:06:04;;;;;;;12.48;10.75;;;;;;;12.22;100.00;101251.75;6220240;23;20507;-76
2022/10/14 08:08:31;;;;;;;13.60;10.60;;;;;;;12.26;100.00;101249.72;6220682;23;20447;-76
2022/10/14 08:11:01;;;;;;;12.23;10.40;;;;;;;12.28;100.00;101252.69;6220472;23;20013;-76
2022/10/14 08:13:31;;;;;;;12.32;10.32;;;;;;;12.30;100.00;101247.66;6220298;23;20028;-76
2022/10/14 08:15:57;;;;;;;16.02;12.10;;;;;;;12.31;100.00;101246.47;6220542;23;20041;-76
2022/10/14 08:18:24;;;;;;;15.10;12.65;;;;;;;12.34;100.00;101244.84;6220941;23;20021;-76
2022/10/14 08:20:51;;;;;;;16.08;12.57;;;;;;;12.35;100.00;101239.06;6221837;23;20055;-77
2022/10/14 08:23:18;;;;;;;15.90;11.32;;;;;;;12.39;100.00;101240.88;6221659;23;20518;-76
2022/10/14 08:25:47;;;;;;;17.98;12.75;;;;;;;12.40;100.00;101250.34;6221800;23;20447;-77
2022/10/14 08:28:14;;;;;;;17.90;12.82;;;;;;;12.42;100.00;101250.63;6195232;23;20045;-76
2022/10/14 08:30:40;;;;;;;17.65;13.68;;;;;;;12.43;100.00;101242.19;6221024;23;20047;-77
2022/10/14 08:33:07;;;;;;;15.80;13.65;;;;;;;12.46;100.00;101240.56;6221555;23;20096;-76
2022/10/14 08:35:33;;;;;;;16.45;14.00;;;;;;;12.48;100.00;101243.53;6221575;23;20041;-76
2022/10/14 08:38:01;;;;;;;22.70;14.57;;;;;;;12.49;100.00;101243.09;6194512;23;20088;-76
2022/10/14 08:40:29;;;;;;;19.83;13.93;;;;;;;12.51;100.00;101242.66;6221557;23;20039;-78
2022/10/14 08:42:58;;;;;;;17.75;13.63;;;;;;;12.54;100.00;101242.53;6220977;23;20472;-77
2022/10/14 08:45:41;;;;;;;21.75;13.80;;;;;;;12.58;100.00;101234.38;6220788;23;20032;-78
2022/10/14 08:48:15;;;;;;;18.02;14.43;;;;;;;12.61;100.00;101238.84;6221518;23;20088;-78
2022/10/14 08:51:20;;;;;;;19.05;14.25;;;;;;;12.62;100.00;101241.09;6221551;23;20017;-77
2022/10/14 08:53:56;;;;;;;17.33;13.95;;;;;;;12.71;100.00;101244.97;6099635;23;20023;-77
2022/10/14 08:56:23;;;;;;;25.58;14.30;;;;;;;12.76;100.00;101236.38;6099958;23;20023;-78
2022/10/14 08:58:51;;;;;;;21.75;14.25;;;;;;;12.82;100.00;101237.25;6099358;23;20050;-75
2022/10/14 09:01:25;;;;;;;17.23;12.77;;;;;;;12.89;100.00;101232.38;6098776;23;20301;-77
2022/10/14 09:03:56;;;;;;;18.45;13.25;;;;;;;12.94;100.00;101231.78;6075748;23;20263;-76
2022/10/14 09:06:28;;;;;;;14.93;12.27;;;;;;;12.99;100.00;101228.53;6099833;23;20560;-76
2022/10/14 09:09:03;;;;;;;13.25;11.93;;;;;;;13.03;100.00;101226.47;6099874;23;20098;-77
2022/10/14 09:11:37;;;;;;;14.43;11.85;;;;;;;13.06;100.00;101229.44;6099434;23;20101;-77
2022/10/14 09:14:07;;;;;;;21.00;14.88;;;;;;;13.08;100.00;101229.75;6099707;23;20042;-77
2022/10/14 09:16:36;;;;;;;15.02;12.35;;;;;;;13.11;100.00;101231.53;6099735;23;20046;-76
2022/10/14 09:19:05;;;;;;;13.65;12.07;;;;;;;13.12;100.00;101228.41;6099481;23;20183;-76
2022/10/14 09:21:42;;;;;;;12.98;11.07;;;;;;;13.15;100.00;101229.44;6099454;23;20046;-78
2022/10/14 09:24:27;;;;;;;12.07;10.65;;;;;;;13.20;100.00;101220.84;6150816;23;20032;-75
2022/10/14 09:27:03;;;;;;;123.15;81.32;;;;;;;13.25;100.00;101218.31;6221265;23;20443;-76
2022/10/14 09:29:33;;;;;;;13.60;12.20;;;;;;;13.30;100.00;101212.38;6220380;23;20048;-77
2022/10/14 09:32:04;;;;;;;12.95;11.60;;;;;;;13.32;100.00;101209.25;6221484;23;20013;-78
2022/10/14 09:34:38;;;;;;;14.55;11.40;;;;;;;13.36;100.00;101209.84;6194647;23;20078;-78
2022/10/14 09:37:23;;;;;;;13.68;11.13;;;;;;;13.41;100.00;101209.25;6221339;23;20012;-78
2022/10/14 09:39:54;;;;;;;15.05;11.07;;;;;;;13.43;100.00;101204.22;6221122;23;20024;-77
2022/10/14 09:42:44;;;;;;;14.60;11.60;;;;;;;13.46;100.00;101207.94;6220897;23;20045;-79
2022/10/14 09:45:22;;;;;;;17.83;11.57;;;;;;;13.51;100.00;101210.75;6220906;23;20018;-77
2022/10/14 09:47:55;;;;;;;13.82;12.13;;;;;;;13.53;100.00;101203.03;6221368;23;20251;-77
2022/10/14 09:50:41;;;;;;;12.93;11.10;;;;;;;13.59;100.00;101200.50;6221527;23;20044;-77
2022/10/14 09:53:16;;;;;;;12.35;11.07;;;;;;;13.62;100.00;101202.25;6221408;23;20009;-77
2022/10/14 09:56:03;;;;;;;14.48;11.07;;;;;;;13.65;100.00;101202.09;6221287;23;20081;-77
2022/10/14 09:58:46;;;;;;;13.32;11.85;;;;;;;13.71;100.00;101199.56;6220669;23;20017;-76
2022/10/14 10:01:19;;;;;;;13.43;11.15;;;;;;;13.74;100.00;101197.91;6221372;23;20048;-78
2022/10/14 10:03:47;;;;;;;12.63;10.70;;;;;;;13.73;100.00;101196.44;6221421;23;20125;-77
2022/10/14 10:06:18;;;;;;;14.48;11.45;;;;;;;13.76;100.00;101185.56;6194970;23;20021;-78
2022/10/14 10:09:00;;;;;;;13.60;12.00;;;;;;;13.78;100.00;101182.44;6195004;23;20119;-76
2022/10/14 10:11:34;;;;;;;13.25;11.60;;;;;;;13.79;100.00;101197.31;6194714;23;20063;-76
2022/10/14 10:14:26;;;;;;;11.80;10.73;;;;;;;13.80;100.00;101188.09;6220605;23;20024;-76
2022/10/14 10:17:08;;;;;;;;;;;;;;;13.87;100.00;101185.84;6221979;23;20045;-77
2022/10/14 10:19:42;;;;;;;;;;;;;;;13.90;100.00;101181.53;6221900;23;19959;-76
2022/10/14 10:22:23;;;;;;;11.60;10.18;;;;;;;13.93;100.00;101183.31;6221293;23;20377;-77
2022/10/14 10:25:11;;;;;;;12.50;11.25;;;;;;;13.96;100.00;101169.03;6220449;23;20486;-77
2022/10/14 10:27:38;;;;;;;12.50;10.52;;;;;;;13.98;100.00;101178.09;6221184;23;20025;-78
2022/10/14 10:30:19;;;;;;;12.23;10.73;;;;;;;14.05;100.00;101171.63;6221148;23;20450;-77
2022/10/14 10:32:51;;;;;;;12.88;10.80;;;;;;;14.05;100.00;101173.56;6221068;23;20013;-77
2022/10/14 10:35:23;;;;;;;11.02;9.98;;;;;;;14.06;100.00;101167.03;6221797;23;20428;-78
2022/10/14 10:38:05;;;;;;;10.68;9.75;;;;;;;14.06;100.00;101167.75;6221199;23;20043;-78
2022/10/14 10:40:38;;;;;;;10.48;9.35;;;;;;;14.09;100.00;101166.88;6220300;23;20017;-75
2022/10/14 10:43:18;;;;;;;10.88;9.88;;;;;;;14.15;100.00;101165.06;6220162;23;20051;-76
2022/10/14 10:46:22;;;;;;;10.23;9.32;;;;;;;14.21;100.00;101171.28;6221135;23;20088;-77
2022/10/14 10:49:00;;;;;;;9.70;8.80;;;;;;;14.27;100.00;101161.44;6220774;23;20028;-77
2022/10/14 10:51:39;;;;;;;9.65;8.65;;;;;;;14.29;100.00;101166.34;6220050;23;20013;-76
2022/10/14 10:54:41;;;;;;;12.25;9.50;;;;;;;14.34;100.00;101158.44;6221166;23;20978;-76
2022/10/14 10:57:28;;;;;;;;;;;;;;;14.38;100.00;101160.19;6220949;23;20088;-76
2022/10/14 11:00:15;;;;;;;8.05;7.25;;;;;;;14.34;100.00;101150.41;6221000;23;19924;-76
2022/10/14 11:03:13;;;;;;;8.10;7.03;;;;;;;14.30;100.00;101152.50;6220977;23;20024;-76
2022/10/14 11:06:01;;;;;;;7.28;6.68;;;;;;;14.34;100.00;101155.75;6169764;23;20351;-76
2022/10/14 11:12:02;;;;;;;6.63;6.13;;;;;;;14.31;100.00;101147.88;6220383;23;20032;-77
2022/10/14 11:14:32;;;;;;;6.95;6.38;;;;;;;14.31;100.00;101137.91;6219861;23;20017;-76
2022/10/14 11:17:27;;;;;;;6.82;6.32;;;;;;;14.33;100.00;101137.47;6219941;23;20017;-76
2022/10/14 11:20:35;;;;;;;6.97;6.47;;;;;;;14.31;100.00;101134.50;6193518;23;20017;-76
2022/10/14 11:23:25;;;;;;;6.38;5.97;;;;;;;14.32;100.00;101133.28;6201164;23;20026;-76
2022/10/14 11:26:01;;;;;;;5.97;5.57;;;;;;;14.31;100.00;101135.22;6220260;23;20021;-76
2022/10/14 11:28:35;;;;;;;5.93;5.50;;;;;;;14.31;100.00;101132.56;6220875;23;20027;-76
2022/10/14 11:31:31;;;;;;;5.50;5.20;;;;;;;14.30;100.00;101133.75;6220973;23;20017;-76
2022/10/14 11:34:20;;;;;;;5.55;5.10;;;;;;;14.29;100.00;101126.91;6200034;23;20021;-76
2022/10/14 11:37:19;;;;;;;7.45;6.85;;;;;;;14.28;100.00;101120.06;6220853;23;20455;-76